createdAt,value
2019-01-02T00:01:13.879Z,39.37
2019-01-02T00:03:47.891Z,41.77
2019-01-02T00:06:46.152Z,29.77
2019-01-02T00:09:22.893Z,37.70
2019-01-02T00:11:56.918Z,40.70
2019-01-02T00:14:30.571Z,41.47
2019-01-02T00:17:10.731Z,45.07
2019-01-02T00:19:45.078Z,27.97
2019-01-02T00:22:19.446Z,42.33
2019-01-02T00:24:54.463Z,40.43
2019-01-02T00:27:28.983Z,38.17
2019-01-02T00:30:02.570Z,42.20
2019-01-02T00:32:37.391Z,44.83
2019-01-02T00:35:11.768Z,45.33
2019-01-02T00:37:48.716Z,44.77
2019-01-02T00:40:46.122Z,47.00
2019-01-02T00:43:40.331Z,38.40
2019-01-02T00:46:37.848Z,46.43
2019-01-02T00:49:14.154Z,44.40
2019-01-02T00:55:22.833Z,37.30
2019-01-02T00:58:01.822Z,41.50
2019-01-02T01:00:36.070Z,37.43
2019-01-02T01:03:21.820Z,50.17
2019-01-02T01:05:57.017Z,48.23
2019-01-02T01:08:31.314Z,48.17
2019-01-02T01:11:28.001Z,44.10
2019-01-02T01:14:16.050Z,46.87
2019-01-02T01:16:49.541Z,49.50
2019-01-02T01:22:26.363Z,48.37
2019-01-02T01:25:34.181Z,50.93
2019-01-02T01:28:08.752Z,36.60
2019-01-02T01:31:06.070Z,47.87
2019-01-02T01:33:40.361Z,42.93
2019-01-02T01:36:14.519Z,53.57
2019-01-02T01:38:59.779Z,46.67
2019-01-02T01:41:58.334Z,38.20
2019-01-02T01:44:34.934Z,39.77
2019-01-02T01:47:21.826Z,53.57
2019-01-02T01:50:20.222Z,36.67
2019-01-02T01:53:02.084Z,42.43
2019-01-02T01:55:57.906Z,39.50
2019-01-02T01:58:31.967Z,34.60
2019-01-02T02:01:18.010Z,34.50
2019-01-02T02:03:53.670Z,32.83
2019-01-02T02:06:26.849Z,50.50
2019-01-02T02:09:00.790Z,35.97
2019-01-02T02:11:36.303Z,35.00
2019-01-02T02:14:11.022Z,34.50
2019-01-02T02:16:44.981Z,36.77
2019-01-02T02:19:19.291Z,43.07
2019-01-02T02:21:52.607Z,31.27
2019-01-02T02:24:36.886Z,40.23
2019-01-02T02:27:15.454Z,35.23
2019-01-02T02:29:51.662Z,45.83
2019-01-02T02:32:24.728Z,32.83
2019-01-02T02:35:15.498Z,37.47
2019-01-02T02:37:48.971Z,35.37
2019-01-02T02:40:24.304Z,37.60
2019-01-02T02:42:58.581Z,39.13
2019-01-02T02:45:57.690Z,37.23
2019-01-02T02:48:32.361Z,43.13
2019-01-02T02:51:20.872Z,37.47
2019-01-02T02:53:59.373Z,32.53
2019-01-02T02:56:34.385Z,21.63
2019-01-02T02:59:20.332Z,34.63
2019-01-02T03:01:56.670Z,32.77
2019-01-02T03:04:47.727Z,36.00
2019-01-02T03:07:20.351Z,42.97
2019-01-02T03:09:53.852Z,37.37
2019-01-02T03:12:27.668Z,39.40
2019-01-02T03:15:02.238Z,39.97
2019-01-02T03:17:35.597Z,35.23
2019-01-02T03:20:11.217Z,28.93
2019-01-02T03:22:45.706Z,40.67
2019-01-02T03:25:31.562Z,29.37
2019-01-02T03:28:05.925Z,42.37
2019-01-02T03:30:40.651Z,40.70
2019-01-02T03:33:14.364Z,36.40
2019-01-02T03:35:49.390Z,49.97
2019-01-02T03:49:09.689Z,33.17
2019-01-02T03:51:55.511Z,34.33
2019-01-02T03:54:28.703Z,38.90
2019-01-02T03:57:02.004Z,40.60
2019-01-02T04:00:01.453Z,43.63
2019-01-02T04:02:51.482Z,34.63
2019-01-02T04:05:24.795Z,46.33
2019-01-02T04:08:07.683Z,37.37
2019-01-02T04:10:42.730Z,37.17
2019-01-02T04:13:16.390Z,45.83
2019-01-02T04:15:54.758Z,47.47
2019-01-02T04:18:28.563Z,39.63
2019-01-02T04:21:02.471Z,32.90
2019-01-02T04:23:37.897Z,58.53
2019-01-02T04:26:16.192Z,50.73
2019-01-02T04:29:02.841Z,43.83
2019-01-02T04:31:50.511Z,40.03
2019-01-02T04:34:22.021Z,53.30
2019-01-02T04:36:55.314Z,52.73
2019-01-02T04:43:36.804Z,48.90
2019-01-02T04:46:10.514Z,41.43
2019-01-02T04:48:45.451Z,47.17
2019-01-02T04:51:39.250Z,31.40
2019-01-02T04:54:16.702Z,42.00
2019-01-02T04:56:50.606Z,45.73
2019-01-02T04:59:54.403Z,41.50
2019-01-02T05:02:39.750Z,41.00
2019-01-02T05:16:23.596Z,36.57
2019-01-02T05:18:59.097Z,40.67
2019-01-02T05:21:45.881Z,43.77
2019-01-02T05:25:00.264Z,31.40
2019-01-02T05:27:49.576Z,35.17
2019-01-02T05:30:23.611Z,33.97
2019-01-02T05:33:21.787Z,36.03
2019-01-02T05:36:00.894Z,36.00
2019-01-02T05:38:36.747Z,30.17
2019-01-02T05:41:42.764Z,34.30
2019-01-02T05:44:16.182Z,39.07
2019-01-02T06:08:12.444Z,24.73
2019-01-02T06:10:47.311Z,29.40
2019-01-02T06:13:20.473Z,22.80
2019-01-02T06:15:54.280Z,37.17
2019-01-02T06:18:32.218Z,24.23
2019-01-02T06:21:24.712Z,37.30
2019-01-02T06:24:37.077Z,28.67
2019-01-02T06:27:12.079Z,30.83
2019-01-02T06:29:46.687Z,26.13
2019-01-02T06:32:20.033Z,30.10
2019-01-02T06:34:53.250Z,25.77
2019-01-02T06:37:26.851Z,26.57
2019-01-02T06:40:00.646Z,27.03
2019-01-02T06:42:33.888Z,29.13
2019-01-02T06:45:25.107Z,24.13
2019-01-02T06:47:58.476Z,33.60
2019-01-02T06:50:31.689Z,21.80
2019-01-02T06:53:07.417Z,17.60
2019-01-02T06:55:53.413Z,22.60
2019-01-02T06:58:27.076Z,24.40
2019-01-02T07:01:01.393Z,26.67
2019-01-02T07:03:34.269Z,23.40
2019-01-02T07:06:08.631Z,15.97
2019-01-02T07:09:00.389Z,26.50
2019-01-02T07:11:34.388Z,19.70
2019-01-02T07:14:08.692Z,17.23
2019-01-02T07:16:53.300Z,19.73
2019-01-02T07:19:38.338Z,19.40
2019-01-02T07:22:29.046Z,14.03
2019-01-02T07:25:01.395Z,19.17
2019-01-02T07:27:35.389Z,15.40
2019-01-02T07:30:12.501Z,18.60
2019-01-02T07:32:46.873Z,14.60
2019-01-02T07:35:53.845Z,15.93
2019-01-02T07:39:10.420Z,11.87
2019-01-02T07:42:25.377Z,8.60
2019-01-02T07:45:31.127Z,11.57
2019-01-02T07:48:35.187Z,8.57
2019-01-02T07:51:48.191Z,9.70
2019-01-02T07:55:21.933Z,13.73
2019-01-02T07:58:07.227Z,7.30
2019-01-02T08:01:21.147Z,6.27
2019-01-02T08:04:38.447Z,9.27
2019-01-02T08:08:10.730Z,6.90
2019-01-02T08:11:06.022Z,7.57
2019-01-02T08:14:14.659Z,11.33
2019-01-02T08:17:32.566Z,7.17
2019-01-02T08:24:10.806Z,4.90
2019-01-02T08:27:31.563Z,7.93
2019-01-02T08:30:31.062Z,4.53
2019-01-02T08:34:00.280Z,7.93
2019-01-02T08:40:21.060Z,4.80
2019-01-02T08:43:48.785Z,4.93
2019-01-02T08:47:46.566Z,4.13
2019-01-02T08:50:49.879Z,4.53
2019-01-02T09:04:20.820Z,3.83
2019-01-02T09:07:55.616Z,2.60
2019-01-02T09:12:06.638Z,2.13
2019-01-02T09:15:18.373Z,3.63
2019-01-02T09:19:30.976Z,2.37
2019-01-02T09:22:40.592Z,4.10
2019-01-02T09:26:22.778Z,4.10
2019-01-02T09:29:25.415Z,3.03
2019-01-02T09:32:48.396Z,4.83
2019-01-02T09:35:52.432Z,2.93
2019-01-02T09:39:58.628Z,2.13
2019-01-02T09:43:24.377Z,7.93
2019-01-02T09:46:15.844Z,3.60
2019-01-02T09:49:05.021Z,5.07
2019-01-02T09:52:32.786Z,4.63
2019-01-02T09:55:44.085Z,4.80
2019-01-02T09:59:17.953Z,3.97
2019-01-02T10:02:30.653Z,4.47
2019-01-02T10:06:04.169Z,5.47
2019-01-02T10:09:23.484Z,3.73
2019-01-02T10:12:29.207Z,4.33
2019-01-02T10:16:28.514Z,5.43
2019-01-02T10:19:36.356Z,4.13
2019-01-02T10:22:54.210Z,2.77
2019-01-02T10:26:32.200Z,3.97
2019-01-02T10:30:13.341Z,3.57
2019-01-02T10:33:29.001Z,4.40
2019-01-02T10:37:16.887Z,3.40
2019-01-02T10:40:45.928Z,3.23
2019-01-02T10:43:54.042Z,3.27
2019-01-02T10:47:10.134Z,2.67
2019-01-02T10:50:23.981Z,1.97
2019-01-02T10:53:27.180Z,3.93
2019-01-02T10:56:52.628Z,5.87
2019-01-02T10:59:59.950Z,4.43
2019-01-02T11:06:50.863Z,3.20
2019-01-02T11:10:00.240Z,3.07
2019-01-02T11:13:24.382Z,4.07
2019-01-02T11:17:02.200Z,2.00
2019-01-02T11:20:11.210Z,9.23
2019-01-02T11:23:23.484Z,4.17
2019-01-02T11:26:37.526Z,1.50
2019-01-02T11:29:55.273Z,2.73
2019-01-02T11:32:46.382Z,1.50
2019-01-02T11:36:11.242Z,5.07
2019-01-02T11:39:44.213Z,3.87
2019-01-02T11:43:13.535Z,4.20
2019-01-02T11:45:46.683Z,3.90
2019-01-02T11:48:31.283Z,5.47
2019-01-02T11:51:04.694Z,3.60
2019-01-02T11:53:37.980Z,4.70
2019-01-02T11:56:11.508Z,1.20
2019-01-02T11:58:49.954Z,4.13
2019-01-02T12:01:20.525Z,2.13
2019-01-02T12:03:53.811Z,3.97
2019-01-02T12:06:27.059Z,2.33
2019-01-02T12:09:16.912Z,2.87
2019-01-02T12:11:50.822Z,7.33
2019-01-02T12:14:24.637Z,2.57
2019-01-02T12:17:08.791Z,4.67
2019-01-02T12:19:42.188Z,3.23
2019-01-02T12:22:15.713Z,3.80
2019-01-02T12:24:48.914Z,1.40
2019-01-02T12:27:22.194Z,1.60
2019-01-02T12:30:05.075Z,3.97
2019-01-02T12:32:56.780Z,2.47
2019-01-02T12:35:30.660Z,3.13
2019-01-02T12:38:03.962Z,3.33
2019-01-02T12:40:38.220Z,1.77
2019-01-02T12:43:20.806Z,5.80
2019-01-02T12:45:54.000Z,3.43
2019-01-02T12:48:27.810Z,7.00
2019-01-02T12:51:01.543Z,2.73
2019-01-02T12:53:48.916Z,2.93
2019-01-02T12:56:22.399Z,3.33
2019-01-02T12:58:56.018Z,132.93
2019-01-02T13:01:48.171Z,1.87
2019-01-02T13:04:59.342Z,4.20
2019-01-02T13:08:20.877Z,2.63
2019-01-02T13:15:17.298Z,2.13
2019-01-02T13:18:34.764Z,2.10
2019-01-02T13:22:11.106Z,1.73
2019-01-02T13:25:31.607Z,1.43
2019-01-02T13:28:40.443Z,2.07
2019-01-02T13:31:53.315Z,3.20
2019-01-02T13:35:09.663Z,4.97
2019-01-02T13:38:27.826Z,2.33
2019-01-02T13:41:48.020Z,3.40
2019-01-02T13:45:09.362Z,3.83
2019-01-02T13:48:39.272Z,5.67
2019-01-02T13:51:23.526Z,2.37
2019-01-02T13:54:16.476Z,3.67
2019-01-02T13:56:52.278Z,4.63
2019-01-02T13:59:26.370Z,2.33
2019-01-02T14:02:00.112Z,1.33
2019-01-02T14:04:34.387Z,5.00
2019-01-02T14:07:31.201Z,3.27
2019-01-02T14:10:09.060Z,4.30
2019-01-02T14:12:57.930Z,2.53
2019-01-02T14:15:31.897Z,4.13
2019-01-02T14:18:04.583Z,4.73
2019-01-02T14:20:47.357Z,4.13
2019-01-02T14:34:06.384Z,3.33
2019-01-02T14:36:40.736Z,4.20
2019-01-02T14:39:14.455Z,1.53
2019-01-02T14:41:53.363Z,2.57
2019-01-02T17:24:37.247Z,5.77
2019-01-02T17:27:22.786Z,5.03
2019-01-02T17:30:13.388Z,2.23
2019-01-02T17:32:57.275Z,4.33
2019-01-02T17:35:31.402Z,1.77
2019-01-02T17:38:07.116Z,2.97
2019-01-02T17:40:45.366Z,4.20
2019-01-02T17:43:19.553Z,3.20
2019-01-02T17:46:11.448Z,4.70
2019-01-02T17:49:03.420Z,5.97
2019-01-02T17:51:37.170Z,2.43
2019-01-02T17:54:10.450Z,3.93
2019-01-02T17:56:43.936Z,2.53
2019-01-02T17:59:35.983Z,2.73
2019-01-02T18:02:09.636Z,2.57
2019-01-02T18:05:09.087Z,1.90
2019-01-02T18:07:44.150Z,3.43
2019-01-02T18:10:18.392Z,2.53
2019-01-02T18:13:06.807Z,3.73
2019-01-02T18:16:10.843Z,4.93
2019-01-02T18:19:13.823Z,5.50
2019-01-02T18:22:09.842Z,1.87
2019-01-02T18:24:55.844Z,3.93
2019-01-02T18:27:41.876Z,5.60
2019-01-02T18:30:46.218Z,5.37
2019-01-02T18:33:20.074Z,5.47
2019-01-02T18:35:54.256Z,6.37
2019-01-02T18:38:27.579Z,6.20
2019-01-02T18:41:04.375Z,3.30
2019-01-02T18:43:38.406Z,3.03
2019-01-02T18:46:15.268Z,5.03
2019-01-02T18:48:48.497Z,6.20
2019-01-02T18:51:22.871Z,3.13
2019-01-02T18:54:09.047Z,5.80
2019-01-02T18:57:05.016Z,2.97
2019-01-02T18:59:38.802Z,5.80
2019-01-02T19:02:15.754Z,4.50
2019-01-02T19:04:52.299Z,3.63
2019-01-02T19:07:42.071Z,5.13
2019-01-02T19:10:16.593Z,5.13
2019-01-02T19:12:50.806Z,6.93
2019-01-02T19:15:24.109Z,5.67
2019-01-02T19:18:07.382Z,6.13
2019-01-02T19:20:46.742Z,2.97
2019-01-02T19:23:25.718Z,4.60
2019-01-02T19:28:50.138Z,2.63
2019-01-02T19:31:28.278Z,3.07
2019-01-02T19:34:09.968Z,2.73
2019-01-02T19:36:49.064Z,4.77
2019-01-02T19:39:22.346Z,3.53
2019-01-02T19:41:56.099Z,5.00
2019-01-02T19:44:29.776Z,3.90
2019-01-02T19:47:03.757Z,4.00
2019-01-02T19:49:52.311Z,4.33
2019-01-02T19:52:55.075Z,3.33
2019-01-02T19:55:31.483Z,2.80
2019-01-02T19:58:16.977Z,5.83
2019-01-02T20:00:56.653Z,6.37
2019-01-02T20:03:31.123Z,3.63
2019-01-02T20:06:06.594Z,2.93
2019-01-02T20:08:44.988Z,5.30
2019-01-02T20:11:18.842Z,4.13
2019-01-02T20:13:54.949Z,2.70
2019-01-02T20:16:29.244Z,4.13
2019-01-02T22:32:29.425Z,11.67
2019-01-02T22:35:03.805Z,7.10
2019-01-02T22:37:57.546Z,10.63
2019-01-02T22:40:31.727Z,9.37
